sensor_id;sensor_type;location;lat;lon;timestamp;temperature;humidity
23769;DHT22;12064;50.890;5.424;2023-04-21T00:07:28;17.70;81.70
23769;DHT22;12064;50.890;5.424;2023-04-21T00:16:20;17.80;82.00
23769;DHT22;12064;50.890;5.424;2023-04-21T00:25:10;17.70;82.00
23769;DHT22;12064;50.890;5.424;2023-04-21T00:34:01;17.70;82.10
23769;DHT22;12064;50.890;5.424;2023-04-21T00:42:52;17.70;82.40
23769;DHT22;12064;50.890;5.424;2023-04-21T00:51:42;17.70;82.30
23769;DHT22;12064;50.890;5.424;2023-04-21T01:00:33;17.70;82.30
23769;DHT22;12064;50.890;5.424;2023-04-21T01:09:24;17.60;82.50
23769;DHT22;12064;50.890;5.424;2023-04-21T01:18:16;17.70;82.70
23769;DHT22;12064;50.890;5.424;2023-04-21T01:27:12;17.60;82.60
23769;DHT22;12064;50.890;5.424;2023-04-21T01:36:04;17.60;82.90
23769;DHT22;12064;50.890;5.424;2023-04-21T01:44:56;17.60;82.90
23769;DHT22;12064;50.890;5.424;2023-04-21T01:53:47;17.60;82.90
23769;DHT22;12064;50.890;5.424;2023-04-21T02:02:39;17.60;83.10
23769;DHT22;12064;50.890;5.424;2023-04-21T02:11:30;17.60;83.20
23769;DHT22;12064;50.890;5.424;2023-04-21T02:20:20;17.60;83.20
23769;DHT22;12064;50.890;5.424;2023-04-21T02:29:11;17.60;83.50
23769;DHT22;12064;50.890;5.424;2023-04-21T02:38:02;17.60;83.50
23769;DHT22;12064;50.890;5.424;2023-04-21T02:46:56;17.50;83.40
23769;DHT22;12064;50.890;5.424;2023-04-21T02:55:47;17.50;83.60
23769;DHT22;12064;50.890;5.424;2023-04-21T03:04:38;17.50;83.60
23769;DHT22;12064;50.890;5.424;2023-04-21T03:13:29;17.50;83.70
23769;DHT22;12064;50.890;5.424;2023-04-21T03:22:20;17.50;83.70
23769;DHT22;12064;50.890;5.424;2023-04-21T03:31:11;17.50;83.80
23769;DHT22;12064;50.890;5.424;2023-04-21T03:40:02;17.50;83.80
23769;DHT22;12064;50.890;5.424;2023-04-21T03:48:55;17.50;84.00
23769;DHT22;12064;50.890;5.424;2023-04-21T03:57:46;17.50;83.70
23769;DHT22;12064;50.890;5.424;2023-04-21T04:06:36;17.40;83.80
23769;DHT22;12064;50.890;5.424;2023-04-21T04:15:27;17.40;84.10
23769;DHT22;12064;50.890;5.424;2023-04-21T04:24:18;17.40;84.20
23769;DHT22;12064;50.890;5.424;2023-04-21T04:33:08;17.40;84.20
23769;DHT22;12064;50.890;5.424;2023-04-21T04:41:59;17.30;84.60
23769;DHT22;12064;50.890;5.424;2023-04-21T04:50:50;17.20;84.30
23769;DHT22;12064;50.890;5.424;2023-04-21T04:59:41;17.20;83.60
23769;DHT22;12064;50.890;5.424;2023-04-21T05:08:32;17.20;83.20
23769;DHT22;12064;50.890;5.424;2023-04-21T05:17:23;17.20;82.90
23769;DHT22;12064;50.890;5.424;2023-04-21T05:26:13;17.20;82.60
23769;DHT22;12064;50.890;5.424;2023-04-21T05:35:04;17.20;82.40
23769;DHT22;12064;50.890;5.424;2023-04-21T05:43:55;17.20;82.90
23769;DHT22;12064;50.890;5.424;2023-04-21T05:52:46;17.20;81.80
23769;DHT22;12064;50.890;5.424;2023-04-21T06:01:36;17.30;81.20
23769;DHT22;12064;50.890;5.424;2023-04-21T06:10:27;17.40;80.80
23769;DHT22;12064;50.890;5.424;2023-04-21T06:19:18;17.60;79.90
23769;DHT22;12064;50.890;5.424;2023-04-21T06:28:08;17.90;79.40
23769;DHT22;12064;50.890;5.424;2023-04-21T06:36:59;18.00;79.00
23769;DHT22;12064;50.890;5.424;2023-04-21T06:45:50;17.90;79.10
23769;DHT22;12064;50.890;5.424;2023-04-21T06:54:42;18.00;79.20
23769;DHT22;12064;50.890;5.424;2023-04-21T07:03:32;18.00;79.10
23769;DHT22;12064;50.890;5.424;2023-04-21T07:12:23;17.90;79.20
23769;DHT22;12064;50.890;5.424;2023-04-21T07:21:14;18.00;79.30
23769;DHT22;12064;50.890;5.424;2023-04-21T07:30:08;18.30;78.60
23769;DHT22;12064;50.890;5.424;2023-04-21T07:38:58;18.50;78.10
23769;DHT22;12064;50.890;5.424;2023-04-21T07:47:49;18.70;77.70
23769;DHT22;12064;50.890;5.424;2023-04-21T07:56:40;18.80;77.20
23769;DHT22;12064;50.890;5.424;2023-04-21T08:05:30;18.90;76.90
23769;DHT22;12064;50.890;5.424;2023-04-21T08:14:21;19.00;76.70
23769;DHT22;12064;50.890;5.424;2023-04-21T08:23:13;19.10;76.60
23769;DHT22;12064;50.890;5.424;2023-04-21T08:32:04;19.20;76.40
23769;DHT22;12064;50.890;5.424;2023-04-21T08:40:55;19.20;76.20
23769;DHT22;12064;50.890;5.424;2023-04-21T08:49:49;19.20;76.20
23769;DHT22;12064;50.890;5.424;2023-04-21T08:58:40;19.10;76.40
23769;DHT22;12064;50.890;5.424;2023-04-21T09:07:34;19.20;76.60
23769;DHT22;12064;50.890;5.424;2023-04-21T09:16:31;20.00;75.00
23769;DHT22;12064;50.890;5.424;2023-04-21T09:25:25;19.20;76.30
23769;DHT22;12064;50.890;5.424;2023-04-21T09:34:20;19.10;77.50
23769;DHT22;12064;50.890;5.424;2023-04-21T09:43:11;19.10;76.60
23769;DHT22;12064;50.890;5.424;2023-04-21T09:52:02;19.30;76.00
23769;DHT22;12064;50.890;5.424;2023-04-21T10:00:55;19.20;76.60
23769;DHT22;12064;50.890;5.424;2023-04-21T10:09:54;19.10;76.60
23769;DHT22;12064;50.890;5.424;2023-04-21T10:18:48;19.10;76.80
23769;DHT22;12064;50.890;5.424;2023-04-21T10:27:41;19.00;76.90
23769;DHT22;12064;50.890;5.424;2023-04-21T10:45:38;19.00;77.00
23769;DHT22;12064;50.890;5.424;2023-04-21T11:03:46;19.00;76.90
23769;DHT22;12064;50.890;5.424;2023-04-21T11:12:39;19.00;76.90
23769;DHT22;12064;50.890;5.424;2023-04-21T11:21:31;19.20;77.00
23769;DHT22;12064;50.890;5.424;2023-04-21T11:30:32;19.00;77.10
23769;DHT22;12064;50.890;5.424;2023-04-21T11:39:23;19.00;77.20
23769;DHT22;12064;50.890;5.424;2023-04-21T11:48:14;19.10;77.20
23769;DHT22;12064;50.890;5.424;2023-04-21T11:57:06;19.30;76.50
23769;DHT22;12064;50.890;5.424;2023-04-21T12:05:57;19.40;76.40
23769;DHT22;12064;50.890;5.424;2023-04-21T12:14:49;19.20;76.60
23769;DHT22;12064;50.890;5.424;2023-04-21T12:23:41;19.20;76.80
23769;DHT22;12064;50.890;5.424;2023-04-21T12:32:31;19.30;76.80
23769;DHT22;12064;50.890;5.424;2023-04-21T12:41:22;19.20;77.00
23769;DHT22;12064;50.890;5.424;2023-04-21T12:50:14;19.10;77.00
23769;DHT22;12064;50.890;5.424;2023-04-21T12:59:09;19.10;77.30
23769;DHT22;12064;50.890;5.424;2023-04-21T13:08:00;19.00;77.20
23769;DHT22;12064;50.890;5.424;2023-04-21T13:16:52;19.00;77.60
23769;DHT22;12064;50.890;5.424;2023-04-21T13:25:42;19.00;76.90
23769;DHT22;12064;50.890;5.424;2023-04-21T13:34:35;19.00;76.70
23769;DHT22;12064;50.890;5.424;2023-04-21T13:43:27;19.00;77.10
23769;DHT22;12064;50.890;5.424;2023-04-21T13:52:18;19.00;77.40
23769;DHT22;12064;50.890;5.424;2023-04-21T14:01:08;19.00;77.10
23769;DHT22;12064;50.890;5.424;2023-04-21T14:10:02;19.00;77.00
23769;DHT22;12064;50.890;5.424;2023-04-21T14:18:53;19.00;77.10
23769;DHT22;12064;50.890;5.424;2023-04-21T14:27:44;19.00;77.80
23769;DHT22;12064;50.890;5.424;2023-04-21T14:36:41;19.10;77.40
23769;DHT22;12064;50.890;5.424;2023-04-21T14:45:32;19.10;77.60
23769;DHT22;12064;50.890;5.424;2023-04-21T14:54:23;19.30;77.50
23769;DHT22;12064;50.890;5.424;2023-04-21T15:03:13;19.30;77.60
23769;DHT22;12064;50.890;5.424;2023-04-21T15:12:05;19.30;78.10
23769;DHT22;12064;50.890;5.424;2023-04-21T15:20:56;19.30;78.40
23769;DHT22;12064;50.890;5.424;2023-04-21T15:29:46;19.10;78.90
23769;DHT22;12064;50.890;5.424;2023-04-21T15:38:37;19.10;79.00
23769;DHT22;12064;50.890;5.424;2023-04-21T15:47:28;19.10;79.10
23769;DHT22;12064;50.890;5.424;2023-04-21T15:56:18;19.10;78.70
23769;DHT22;12064;50.890;5.424;2023-04-21T16:05:09;19.20;78.60
23769;DHT22;12064;50.890;5.424;2023-04-21T16:14:01;19.10;78.80
23769;DHT22;12064;50.890;5.424;2023-04-21T16:22:52;19.20;76.50
23769;DHT22;12064;50.890;5.424;2023-04-21T16:31:43;19.30;75.70
23769;DHT22;12064;50.890;5.424;2023-04-21T16:40:33;19.10;78.00
23769;DHT22;12064;50.890;5.424;2023-04-21T16:49:24;19.00;77.40
23769;DHT22;12064;50.890;5.424;2023-04-21T16:58:15;19.00;77.70
23769;DHT22;12064;50.890;5.424;2023-04-21T17:07:06;19.10;77.70
23769;DHT22;12064;50.890;5.424;2023-04-21T17:15:57;19.00;78.80
23769;DHT22;12064;50.890;5.424;2023-04-21T17:24:47;18.90;78.30
23769;DHT22;12064;50.890;5.424;2023-04-21T17:33:38;18.90;78.40
23769;DHT22;12064;50.890;5.424;2023-04-21T17:42:29;18.90;78.40
23769;DHT22;12064;50.890;5.424;2023-04-21T17:51:20;19.00;78.40
23769;DHT22;12064;50.890;5.424;2023-04-21T18:00:11;19.00;79.00
23769;DHT22;12064;50.890;5.424;2023-04-21T18:09:02;18.90;78.90
23769;DHT22;12064;50.890;5.424;2023-04-21T18:17:54;18.90;78.80
23769;DHT22;12064;50.890;5.424;2023-04-21T18:26:44;19.00;78.80
23769;DHT22;12064;50.890;5.424;2023-04-21T18:35:35;18.90;78.80
23769;DHT22;12064;50.890;5.424;2023-04-21T18:44:26;19.00;78.60
23769;DHT22;12064;50.890;5.424;2023-04-21T18:53:17;19.00;78.30
23769;DHT22;12064;50.890;5.424;2023-04-21T19:02:10;19.00;78.70
23769;DHT22;12064;50.890;5.424;2023-04-21T19:11:02;18.90;79.40
23769;DHT22;12064;50.890;5.424;2023-04-21T19:19:52;18.90;79.40
23769;DHT22;12064;50.890;5.424;2023-04-21T19:28:43;18.90;79.10
23769;DHT22;12064;50.890;5.424;2023-04-21T19:37:34;18.90;79.70
23769;DHT22;12064;50.890;5.424;2023-04-21T19:46:25;18.80;79.70
23769;DHT22;12064;50.890;5.424;2023-04-21T19:55:16;18.90;79.70
23769;DHT22;12064;50.890;5.424;2023-04-21T20:04:07;18.90;79.30
23769;DHT22;12064;50.890;5.424;2023-04-21T20:12:58;19.00;78.90
23769;DHT22;12064;50.890;5.424;2023-04-21T20:21:48;19.00;78.90
23769;DHT22;12064;50.890;5.424;2023-04-21T20:30:39;19.00;78.90
23769;DHT22;12064;50.890;5.424;2023-04-21T20:39:30;19.00;78.90
23769;DHT22;12064;50.890;5.424;2023-04-21T20:48:20;19.00;78.90
23769;DHT22;12064;50.890;5.424;2023-04-21T20:57:11;19.00;79.00
23769;DHT22;12064;50.890;5.424;2023-04-21T21:06:02;19.00;79.10
23769;DHT22;12064;50.890;5.424;2023-04-21T21:14:53;19.00;79.20
23769;DHT22;12064;50.890;5.424;2023-04-21T21:23:47;19.00;79.20
23769;DHT22;12064;50.890;5.424;2023-04-21T21:32:38;18.90;79.20
23769;DHT22;12064;50.890;5.424;2023-04-21T21:41:29;18.90;79.30
23769;DHT22;12064;50.890;5.424;2023-04-21T21:50:19;18.90;79.30
23769;DHT22;12064;50.890;5.424;2023-04-21T21:59:10;18.90;79.40
23769;DHT22;12064;50.890;5.424;2023-04-21T22:08:01;18.90;79.50
23769;DHT22;12064;50.890;5.424;2023-04-21T22:16:52;18.80;79.60
23769;DHT22;12064;50.890;5.424;2023-04-21T22:25:44;18.80;80.50
23769;DHT22;12064;50.890;5.424;2023-04-21T22:34:35;18.80;79.80
23769;DHT22;12064;50.890;5.424;2023-04-21T22:43:25;18.80;79.90
23769;DHT22;12064;50.890;5.424;2023-04-21T22:52:16;18.70;79.90
23769;DHT22;12064;50.890;5.424;2023-04-21T23:01:07;18.70;80.10
23769;DHT22;12064;50.890;5.424;2023-04-21T23:09:57;18.70;80.10
23769;DHT22;12064;50.890;5.424;2023-04-21T23:18:48;18.60;80.20
23769;DHT22;12064;50.890;5.424;2023-04-21T23:27:39;18.60;80.30
23769;DHT22;12064;50.890;5.424;2023-04-21T23:36:30;18.60;80.30
23769;DHT22;12064;50.890;5.424;2023-04-21T23:45:21;18.60;80.50
23769;DHT22;12064;50.890;5.424;2023-04-21T23:54:12;18.60;80.60
